Daly City, CA

8:35 AM PDT on July 07, 2015 (GMT -0700)
Half Moon Bay | | Change Station
CLOSE
Current Station
Airport
Location: Half Moon Bay,
Elevation: 66 ft
Nearby Weather Stations

Elev 66 ft 37.51 °N, 122.50 °W | Updated 20 minutes ago

Overcast
Overcast
63 °F
Feels Like 63 °F
N
7
Wind Variable Wind from South

Today
High -- | Low -- °F
--% Chance of Precip.
Yesterday
High -- | Low -- °F
Precip. -- in
5:54 AM 8:34 PM
Waning Gibbous, 64% visible
Pressure 30.05 in
Visibility 5.0 miles
Clouds Few 800 ft
Overcast 1700 ft
Dew Point 63 °F
Humidity 100%
Rainfall 0.00 in
Snow Depth Not available.
UV 1 out of 12
Pollen 3.20 out of 12
Air Quality Not available.
Flu Activity Not available.
METAR KHAF 071515Z AUTO 17006KT 5SM BR FEW008 OVC017 17/17 A3005 RMK AO2

More Conditions Fewer Conditions

Pressure 30.05 in
Visibility 5.0 miles
Clouds Few 800 ft
Overcast 1700 ft
Dew Point 63 °F
Humidity 100%
Rainfall 0.00 in
Snow Depth Not available.
UV 1 out of 12
Pollen 3.20 out of 12
Air Quality Not available.
Flu Activity Not available.
METAR KHAF 071515Z AUTO 17006KT 5SM BR FEW008 OVC017 17/17 A3005 RMK AO2

More Conditions Fewer Conditions

10-Day Weather Forecast

×

Almanac

Astronomy

Jul. 07, 2015 Rise Set
Actual Time
Civil Twilight
Nautical Twilight
Astronomical Twilight
Moon
Length of Visible Light
Length of Day
Tomorrow will be .
, % of the Moon is Illuminated

Today's Extremes

State Highs State Lows

Community

WunderPhotos

Upload Photos

1,835,818 photos uploaded!

WunderBlogs® & News

Nearby

Air Quality

  Air Quality AQ Index Pollutant
Not available.

Snow Depth

Station Depth Elevation

Earthquake Activity

City Distance Mag. Time & Date
Minimum magnitude displayed is 2.5.

Coastal Water Temperatures

Place Temperature

Stations

Nearby Weather Stations

Station Location Temp. Windchill Dew Point Humidity Wind Precip. Elev Updated Type